Time;durP1;ratioP1;P1;durP2;ratioP2;P2;SDS_P1;SDS_P2;PMS_P1;PMS_P2;Temp;Humidity;BMP_temperature;BMP_pressure;BME280_temperature;BME280_humidity;BME280_pressure;Samples;Min_cycle;Max_cycle;Signal;HPM_P1;HPM_P2
2023/07/01 00:01:13;;;;;;;4.93;3.72;;;;;;;;;;4835555;29;20100;-80
2023/07/01 00:03:38;;;;;;;6.28;4.15;;;;;;;;;;4830896;29;20063;-80
2023/07/01 00:06:04;;;;;;;5.28;3.55;;;;;;;;;;4835174;29;20418;-79
2023/07/01 00:08:29;;;;;;;5.72;3.42;;;;;;;;;;4830173;29;20084;-80
2023/07/01 00:10:59;;;;;;;6.32;3.67;;;;;;;;;;4820792;29;20403;-80
2023/07/01 00:13:24;;;;;;;4.68;3.78;;;;;;;;;;4849343;29;20041;-79
2023/07/01 00:15:56;;;;;;;6.18;3.70;;;;;;;;;;4835776;29;20570;-80
2023/07/01 00:18:22;;;;;;;7.00;4.40;;;;;;;;;;4855156;29;20045;-79
2023/07/01 00:20:47;;;;;;;7.63;4.30;;;;;;;;;;4837751;29;20114;-80
2023/07/01 00:23:15;;;;;;;6.00;4.03;;;;;;;;;;4834359;29;20049;-80
2023/07/01 00:25:41;;;;;;;7.05;3.78;;;;;;;;;;4834799;29;20047;-79
2023/07/01 00:28:06;;;;;;;6.22;4.00;;;;;;;;;;4812750;29;20082;-80
2023/07/01 00:30:39;;;;;;;5.47;4.13;;;;;;;;;;4810566;29;20074;-79
2023/07/01 00:33:05;;;;;;;6.72;4.40;;;;;;;;;;4840111;29;20512;-80
2023/07/01 00:35:31;;;;;;;6.28;4.30;;;;;;;;;;4834883;29;20116;-80
2023/07/01 00:37:57;;;;;;;8.25;4.60;;;;;;;;;;4858803;29;20111;-79
2023/07/01 00:40:23;;;;;;;8.35;4.28;;;;;;;;;;4909616;29;20077;-79
2023/07/01 00:42:48;;;;;;;7.25;4.65;;;;;;;;;;4894388;29;20032;-80
2023/07/01 00:45:17;;;;;;;6.57;4.55;;;;;;;;;;4892364;29;20043;-79
2023/07/01 00:47:42;;;;;;;7.20;4.90;;;;;;;;;;4881204;29;20563;-80
2023/07/01 00:50:12;;;;;;;6.40;4.35;;;;;;;;;;4896762;29;20048;-80
2023/07/01 00:52:41;;;;;;;6.18;4.88;;;;;;;;;;4912765;29;20055;-79
2023/07/01 00:55:07;;;;;;;5.82;4.35;;;;;;;;;;4896533;29;20913;-79
2023/07/01 00:57:33;;;;;;;5.40;4.25;;;;;;;;;;4910606;29;20044;-80
2023/07/01 00:59:59;;;;;;;7.10;4.35;;;;;;;;;;4875241;29;20044;-79
2023/07/01 01:02:27;;;;;;;6.88;4.72;;;;;;;;;;4888229;29;20083;-81
2023/07/01 01:05:10;;;;;;;6.75;4.25;;;;;;;;;;4911221;29;20408;-80
2023/07/01 01:07:51;;;;;;;6.88;4.68;;;;;;;;;;4899630;29;20035;-79
2023/07/01 01:10:23;;;;;;;5.63;4.90;;;;;;;;;;4910692;29;20088;-80
2023/07/01 01:12:55;;;;;;;6.18;4.63;;;;;;;;;;4896271;29;20480;-80
2023/07/01 01:15:21;;;;;;;6.90;5.55;;;;;;;;;;4883559;29;20040;-82
2023/07/01 01:17:48;;;;;;;6.10;4.88;;;;;;;;;;4894734;29;20711;-81
2023/07/01 01:20:16;;;;;;;6.72;4.65;;;;;;;;;;4893775;29;20033;-82
2023/07/01 01:22:49;;;;;;;6.40;4.90;;;;;;;;;;4899349;29;20036;-81
2023/07/01 01:25:28;;;;;;;8.93;5.38;;;;;;;;;;4895246;29;20046;-80
2023/07/01 01:27:55;;;;;;;6.55;4.93;;;;;;;;;;4910438;29;20060;-81
2023/07/01 01:30:23;;;;;;;7.47;4.68;;;;;;;;;;4879965;29;20731;-80
2023/07/01 01:32:48;;;;;;;7.30;4.90;;;;;;;;;;4879776;29;20548;-79
2023/07/01 01:35:14;;;;;;;8.48;5.18;;;;;;;;;;4894579;29;20123;-79
2023/07/01 01:37:53;;;;;;;7.10;5.00;;;;;;;;;;4895253;29;20393;-79
2023/07/01 01:40:30;;;;;;;8.60;5.43;;;;;;;;;;4875775;29;20040;-80
2023/07/01 01:43:03;;;;;;;6.68;5.13;;;;;;;;;;4868083;29;20040;-80
2023/07/01 01:45:28;;;;;;;7.53;4.88;;;;;;;;;;4878539;29;20040;-80
2023/07/01 01:47:54;;;;;;;8.48;5.40;;;;;;;;;;4878248;29;20044;-81
2023/07/01 01:50:21;;;;;;;10.90;5.40;;;;;;;;;;4893738;29;20139;-79
2023/07/01 01:52:49;;;;;;;6.63;5.18;;;;;;;;;;4879803;29;20036;-79
2023/07/01 01:55:16;;;;;;;6.07;4.95;;;;;;;;;;4894125;29;20559;-80
2023/07/01 01:57:43;;;;;;;9.60;5.05;;;;;;;;;;4876036;29;20071;-79
2023/07/01 02:00:09;;;;;;;7.43;5.15;;;;;;;;;;4881508;29;20040;-79
2023/07/01 02:02:35;;;;;;;8.30;5.47;;;;;;;;;;4879754;29;20048;-80
2023/07/01 02:05:01;;;;;;;7.13;4.80;;;;;;;;;;4895013;29;20085;-79
2023/07/01 02:07:26;;;;;;;7.85;5.20;;;;;;;;;;4893513;29;20040;-79
2023/07/01 02:09:52;;;;;;;6.70;5.25;;;;;;;;;;4887357;29;20139;-80
2023/07/01 02:12:17;;;;;;;7.93;5.40;;;;;;;;;;4877736;29;20040;-81
2023/07/01 02:14:43;;;;;;;8.48;5.47;;;;;;;;;;4858333;29;20085;-80
2023/07/01 02:17:08;;;;;;;6.82;4.70;;;;;;;;;;4890197;29;20083;-80
2023/07/01 02:19:34;;;;;;;6.60;5.10;;;;;;;;;;4910302;29;20500;-81
2023/07/01 02:21:59;;;;;;;9.63;5.30;;;;;;;;;;4877795;29;20044;-80
2023/07/01 02:24:24;;;;;;;6.55;4.80;;;;;;;;;;4879919;29;20031;-80
2023/07/01 02:26:50;;;;;;;8.30;5.35;;;;;;;;;;4893250;29;20040;-81
2023/07/01 02:29:16;;;;;;;7.05;5.13;;;;;;;;;;4889964;29;20584;-80
2023/07/01 02:31:44;;;;;;;7.15;5.10;;;;;;;;;;4892692;29;20036;-80
2023/07/01 02:34:09;;;;;;;7.65;5.35;;;;;;;;;;4894374;29;20100;-80
2023/07/01 02:36:35;;;;;;;6.68;5.10;;;;;;;;;;4879598;29;20043;-80
2023/07/01 02:39:03;;;;;;;8.02;5.63;;;;;;;;;;4878052;29;20379;-80
2023/07/01 02:41:31;;;;;;;7.85;6.13;;;;;;;;;;4881262;29;20119;-80
2023/07/01 02:43:56;;;;;;;9.10;6.00;;;;;;;;;;4887145;29;20035;-80
2023/07/01 02:46:22;;;;;;;10.18;5.90;;;;;;;;;;4892284;29;20040;-81
2023/07/01 02:48:47;;;;;;;11.77;6.25;;;;;;;;;;4906509;29;20047;-80
2023/07/01 02:51:14;;;;;;;7.30;5.80;;;;;;;;;;4889708;29;20060;-80
2023/07/01 02:53:39;;;;;;;9.95;6.10;;;;;;;;;;4875829;29;20040;-81
2023/07/01 02:56:04;;;;;;;7.50;5.90;;;;;;;;;;4888924;29;20568;-80
2023/07/01 02:58:30;;;;;;;9.48;6.47;;;;;;;;;;4890069;29;20159;-80
2023/07/01 03:00:55;;;;;;;9.55;6.10;;;;;;;;;;4889213;29;20036;-80
2023/07/01 03:03:21;;;;;;;7.50;5.63;;;;;;;;;;4868531;29;20032;-81
2023/07/01 03:05:46;;;;;;;9.98;6.30;;;;;;;;;;4890473;29;20503;-80
2023/07/01 03:08:11;;;;;;;8.52;6.00;;;;;;;;;;4882133;29;20056;-80
2023/07/01 03:10:37;;;;;;;9.20;6.55;;;;;;;;;;4905907;29;20039;-80
2023/07/01 03:13:03;;;;;;;8.73;6.30;;;;;;;;;;4891103;29;20505;-80
2023/07/01 03:15:28;;;;;;;10.35;7.22;;;;;;;;;;4890851;29;20084;-81
2023/07/01 03:17:54;;;;;;;10.65;6.93;;;;;;;;;;4890264;29;20040;-80
2023/07/01 03:20:25;;;;;;;13.63;8.25;;;;;;;;;;4897809;29;20040;-81
2023/07/01 03:22:52;;;;;;;7.95;6.72;;;;;;;;;;4890968;29;20037;-79
2023/07/01 03:25:17;;;;;;;9.43;7.00;;;;;;;;;;4894715;29;20042;-80
2023/07/01 03:27:52;;;;;;;9.90;7.00;;;;;;;;;;4891672;29;20123;-79
2023/07/01 03:30:18;;;;;;;7.25;6.20;;;;;;;;;;4873341;29;20060;-80
2023/07/01 03:32:44;;;;;;;8.70;6.55;;;;;;;;;;4891084;29;20047;-79
2023/07/01 03:35:11;;;;;;;8.75;6.88;;;;;;;;;;4889709;29;20044;-79
2023/07/01 03:37:38;;;;;;;9.07;6.95;;;;;;;;;;4905006;29;20122;-80
2023/07/01 03:40:13;;;;;;;10.17;7.13;;;;;;;;;;4888107;29;20071;-81
2023/07/01 03:42:41;;;;;;;8.60;7.22;;;;;;;;;;4892767;29;20708;-80
2023/07/01 03:45:08;;;;;;;8.60;6.82;;;;;;;;;;4900377;29;20512;-81
2023/07/01 03:47:39;;;;;;;11.45;7.82;;;;;;;;;;4881620;29;20408;-80
2023/07/01 03:50:08;;;;;;;10.23;7.07;;;;;;;;;;4874931;29;20096;-80
2023/07/01 03:52:36;;;;;;;10.90;7.50;;;;;;;;;;4889094;29;20036;-80
2023/07/01 03:55:02;;;;;;;9.27;7.22;;;;;;;;;;4883010;29;20040;-80
2023/07/01 03:57:28;;;;;;;9.45;7.63;;;;;;;;;;4889506;29;20051;-80
2023/07/01 03:59:53;;;;;;;12.30;7.00;;;;;;;;;;4873181;29;20036;-80
2023/07/01 04:02:19;;;;;;;8.90;7.32;;;;;;;;;;4879575;29;20460;-81
2023/07/01 04:04:44;;;;;;;10.32;7.57;;;;;;;;;;4884573;29;20401;-81
2023/07/01 04:07:10;;;;;;;9.65;6.90;;;;;;;;;;4880103;29;20044;-80
2023/07/01 04:09:35;;;;;;;10.88;7.47;;;;;;;;;;4907484;29;20040;-79
2023/07/01 04:12:02;;;;;;;9.18;6.60;;;;;;;;;;4888912;29;20060;-80
2023/07/01 04:14:28;;;;;;;10.07;6.93;;;;;;;;;;4909078;29;20409;-79
2023/07/01 04:16:53;;;;;;;8.82;6.38;;;;;;;;;;4879708;29;20048;-81
2023/07/01 04:19:19;;;;;;;8.40;6.28;;;;;;;;;;4893956;29;20036;-80
2023/07/01 04:21:44;;;;;;;8.95;6.90;;;;;;;;;;4882833;29;20521;-81
2023/07/01 04:24:10;;;;;;;9.07;6.57;;;;;;;;;;4874385;29;20118;-80
2023/07/01 04:26:35;;;;;;;9.60;6.68;;;;;;;;;;4869284;29;20116;-81
2023/07/01 04:29:02;;;;;;;8.38;6.18;;;;;;;;;;4877602;29;20188;-80
2023/07/01 04:31:27;;;;;;;8.23;6.90;;;;;;;;;;4855805;29;20039;-81
2023/07/01 04:33:54;;;;;;;8.25;6.18;;;;;;;;;;4892046;29;20036;-80
2023/07/01 04:36:20;;;;;;;12.23;6.65;;;;;;;;;;4876736;29;20032;-80
2023/07/01 04:38:48;;;;;;;8.02;6.28;;;;;;;;;;4894117;29;20040;-80
2023/07/01 04:41:13;;;;;;;10.02;6.70;;;;;;;;;;4894298;29;20085;-79
2023/07/01 04:43:41;;;;;;;10.25;7.45;;;;;;;;;;4878314;29;20036;-80
2023/07/01 04:46:07;;;;;;;8.85;6.95;;;;;;;;;;4882016;29;20088;-80
2023/07/01 04:48:33;;;;;;;7.97;6.50;;;;;;;;;;4892657;29;20044;-80
2023/07/01 04:50:58;;;;;;;10.30;6.72;;;;;;;;;;4884517;29;20119;-80
2023/07/01 04:53:26;;;;;;;9.18;6.55;;;;;;;;;;4888306;29;20037;-79
2023/07/01 04:55:52;;;;;;;8.80;6.60;;;;;;;;;;4877417;29;20032;-79
2023/07/01 04:58:17;;;;;;;9.38;6.43;;;;;;;;;;4891595;29;20044;-79
2023/07/01 05:00:45;;;;;;;9.45;6.97;;;;;;;;;;4874333;29;20036;-79
2023/07/01 05:03:10;;;;;;;7.75;6.68;;;;;;;;;;4893293;29;20033;-79
2023/07/01 05:05:36;;;;;;;7.70;5.80;;;;;;;;;;4891834;29;20036;-79
2023/07/01 05:08:02;;;;;;;7.45;5.90;;;;;;;;;;4892618;29;20398;-79
2023/07/01 05:10:27;;;;;;;7.53;5.78;;;;;;;;;;4893804;29;20045;-78
2023/07/01 05:12:52;;;;;;;8.07;5.90;;;;;;;;;;4893216;29;20069;-80
2023/07/01 05:15:24;;;;;;;7.97;5.47;;;;;;;;;;4891007;29;20040;-80
2023/07/01 05:17:49;;;;;;;6.30;5.22;;;;;;;;;;4892354;29;20561;-82
2023/07/01 05:20:15;;;;;;;7.68;5.10;;;;;;;;;;4883240;29;20043;-80
2023/07/01 05:22:40;;;;;;;6.53;5.10;;;;;;;;;;4868604;29;20457;-80
2023/07/01 05:25:06;;;;;;;7.43;4.72;;;;;;;;;;4876868;29;20040;-79
2023/07/01 05:27:32;;;;;;;8.20;4.90;;;;;;;;;;4875863;29;20040;-79
2023/07/01 05:29:57;;;;;;;6.75;4.30;;;;;;;;;;4897694;29;20051;-80
2023/07/01 05:32:23;;;;;;;6.70;4.63;;;;;;;;;;4858705;29;20032;-79
2023/07/01 05:34:49;;;;;;;6.88;4.60;;;;;;;;;;4893993;29;20095;-80
2023/07/01 05:37:14;;;;;;;7.40;4.60;;;;;;;;;;4874991;29;20070;-80
2023/07/01 05:39:40;;;;;;;8.50;4.53;;;;;;;;;;4907249;29;20048;-81
2023/07/01 05:42:05;;;;;;;7.25;4.22;;;;;;;;;;4878184;29;20119;-80
2023/07/01 05:44:31;;;;;;;6.25;4.00;;;;;;;;;;4891729;29;20052;-81
2023/07/01 05:46:56;;;;;;;7.38;4.50;;;;;;;;;;4882179;29;20033;-80
2023/07/01 05:49:22;;;;;;;5.95;3.75;;;;;;;;;;4860844;29;20505;-80
2023/07/01 05:51:47;;;;;;;6.05;4.00;;;;;;;;;;4884332;29;20448;-80
2023/07/01 05:54:13;;;;;;;6.60;3.90;;;;;;;;;;4892910;29;20124;-80
2023/07/01 05:56:41;;;;;;;5.60;3.67;;;;;;;;;;4891442;29;20100;-80
2023/07/01 05:59:06;;;;;;;5.95;3.70;;;;;;;;;;4890794;29;20416;-80
2023/07/01 06:01:35;;;;;;;6.80;3.65;;;;;;;;;;4874836;29;20032;-79
2023/07/01 06:04:01;;;;;;;5.55;4.07;;;;;;;;;;4891692;29;20478;-80
2023/07/01 06:06:27;;;;;;;5.68;3.67;;;;;;;;;;4906723;29;20036;-80
2023/07/01 06:08:52;;;;;;;5.70;3.28;;;;;;;;;;4876519;29;20041;-80
2023/07/01 06:11:17;;;;;;;5.65;3.53;;;;;;;;;;4890436;29;20398;-79
2023/07/01 06:13:55;;;;;;;6.47;4.15;;;;;;;;;;4890902;29;20464;-80
2023/07/01 06:16:21;;;;;;;5.90;3.35;;;;;;;;;;4905787;29;20053;-79
2023/07/01 06:18:46;;;;;;;5.22;3.28;;;;;;;;;;4893334;29;20448;-81
2023/07/01 06:21:12;;;;;;;4.85;3.20;;;;;;;;;;4906337;29;20040;-79
2023/07/01 06:23:37;;;;;;;5.80;3.05;;;;;;;;;;4881214;29;20068;-80
2023/07/01 06:26:04;;;;;;;9.95;3.55;;;;;;;;;;4871642;29;20040;-80
2023/07/01 06:28:29;;;;;;;4.22;2.85;;;;;;;;;;4891650;29;20448;-80
2023/07/01 06:30:55;;;;;;;5.00;3.05;;;;;;;;;;4902667;29;20040;-80
2023/07/01 06:33:20;;;;;;;6.32;3.20;;;;;;;;;;4905678;29;20060;-81
2023/07/01 06:35:45;;;;;;;6.13;2.60;;;;;;;;;;4889956;29;20417;-81
2023/07/01 06:38:11;;;;;;;4.90;2.80;;;;;;;;;;4863915;29;20041;-80
2023/07/01 06:40:37;;;;;;;6.47;2.55;;;;;;;;;;4898479;29;20437;-80
2023/07/01 06:43:06;;;;;;;4.15;2.53;;;;;;;;;;4890469;29;20051;-80
2023/07/01 06:45:32;;;;;;;6.50;2.60;;;;;;;;;;4905227;29;20044;-80
2023/07/01 06:47:58;;;;;;;5.45;2.30;;;;;;;;;;4884198;29;20435;-81
2023/07/01 06:50:26;;;;;;;5.95;2.42;;;;;;;;;;4866176;29;20605;-80
2023/07/01 06:52:51;;;;;;;6.18;2.13;;;;;;;;;;4888671;29;20044;-81
2023/07/01 06:55:17;;;;;;;6.15;2.00;;;;;;;;;;4890258;29;20041;-81
2023/07/01 06:57:43;;;;;;;4.30;2.10;;;;;;;;;;4889489;29;20045;-80
2023/07/01 07:00:12;;;;;;;4.13;2.40;;;;;;;;;;4891134;29;20044;-80
2023/07/01 07:02:38;;;;;;;4.53;1.90;;;;;;;;;;4894879;29;20505;-80
2023/07/01 07:05:04;;;;;;;5.35;1.77;;;;;;;;;;4905237;29;20047;-79
2023/07/01 07:07:30;;;;;;;4.65;1.85;;;;;;;;;;4904201;29;20508;-80
2023/07/01 07:09:55;;;;;;;4.03;1.80;;;;;;;;;;4880506;29;20100;-79
2023/07/01 07:12:24;;;;;;;4.95;2.03;;;;;;;;;;4889087;29;20032;-79
2023/07/01 07:14:50;;;;;;;3.28;1.58;;;;;;;;;;4889946;29;20500;-81
2023/07/01 07:17:15;;;;;;;3.10;1.60;;;;;;;;;;4873473;29;20032;-80
2023/07/01 07:19:41;;;;;;;4.32;1.83;;;;;;;;;;4874631;29;20044;-80
2023/07/01 07:22:06;;;;;;;5.03;1.70;;;;;;;;;;4875231;29;20033;-80
2023/07/01 07:24:32;;;;;;;3.22;1.33;;;;;;;;;;4883280;29;20388;-79
2023/07/01 07:27:00;;;;;;;3.70;1.48;;;;;;;;;;4887368;29;20052;-80
2023/07/01 07:29:27;;;;;;;2.65;1.30;;;;;;;;;;4891509;29;20068;-82
2023/07/01 07:31:52;;;;;;;2.97;1.50;;;;;;;;;;4888810;29;20429;-81
2023/07/01 07:34:18;;;;;;;3.05;1.35;;;;;;;;;;4888887;29;20285;-80
2023/07/01 07:36:43;;;;;;;2.50;1.30;;;;;;;;;;4882853;29;20067;-80
2023/07/01 07:39:32;;;;;;;2.67;1.20;;;;;;;;;;4906431;29;20132;-80
2023/07/01 07:41:57;;;;;;;2.92;1.10;;;;;;;;;;4811441;29;20038;-83
2023/07/01 07:44:23;;;;;;;3.33;1.38;;;;;;;;;;4798141;29;20045;-79
2023/07/01 07:46:48;;;;;;;4.28;1.20;;;;;;;;;;4826315;29;20034;-81
2023/07/01 07:49:16;;;;;;;4.35;1.10;;;;;;;;;;4810800;29;20051;-79
2023/07/01 07:51:42;;;;;;;2.80;0.98;;;;;;;;;;4845702;29;20125;-80
2023/07/01 07:54:07;;;;;;;3.08;1.20;;;;;;;;;;4831774;29;20136;-81
2023/07/01 07:56:33;;;;;;;2.85;1.10;;;;;;;;;;4816080;29;20112;-80
2023/07/01 07:59:04;;;;;;;2.42;1.08;;;;;;;;;;4845514;29;20040;-81
2023/07/01 08:01:30;;;;;;;3.38;0.90;;;;;;;;;;4822139;29;20053;-80
2023/07/01 08:03:55;;;;;;;4.38;1.30;;;;;;;;;;4827555;29;20187;-82
2023/07/01 08:06:21;;;;;;;2.65;0.93;;;;;;;;;;4810242;29;20046;-81
2023/07/01 08:08:46;;;;;;;4.30;1.20;;;;;;;;;;4845437;29;20469;-81
2023/07/01 08:11:12;;;;;;;3.42;1.10;;;;;;;;;;4808328;29;20037;-80
2023/07/01 08:13:37;;;;;;;2.83;0.90;;;;;;;;;;4840224;29;20117;-79
2023/07/01 08:16:04;;;;;;;5.05;1.30;;;;;;;;;;4828115;29;20098;-80
2023/07/01 08:18:30;;;;;;;4.15;1.10;;;;;;;;;;4831032;29;20195;-80
2023/07/01 08:20:56;;;;;;;3.33;1.00;;;;;;;;;;4888338;29;20695;-80
2023/07/01 08:23:21;;;;;;;4.50;1.13;;;;;;;;;;4890656;29;20048;-81
2023/07/01 08:25:54;;;;;;;3.20;1.10;;;;;;;;;;4867019;29;20512;-81
2023/07/01 08:28:19;;;;;;;3.13;1.05;;;;;;;;;;4885399;29;20040;-82
2023/07/01 08:30:45;;;;;;;2.45;0.93;;;;;;;;;;4889841;29;20040;-81
2023/07/01 08:33:35;;;;;;;5.45;1.10;;;;;;;;;;4891911;29;20048;-82
2023/07/01 08:36:00;;;;;;;3.78;1.00;;;;;;;;;;4849071;29;20046;-81
2023/07/01 08:38:28;;;;;;;2.47;0.90;;;;;;;;;;4836926;29;20049;-81
2023/07/01 08:40:55;;;;;;;3.30;1.20;;;;;;;;;;4839679;29;20037;-82
2023/07/01 08:43:28;;;;;;;3.63;1.00;;;;;;;;;;4834593;29;20046;-80
2023/07/01 08:45:56;;;;;;;2.72;0.88;;;;;;;;;;4834770;29;20121;-81
2023/07/01 08:48:22;;;;;;;6.53;0.90;;;;;;;;;;4818541;29;20702;-81
2023/07/01 08:51:20;;;;;;;4.05;0.90;;;;;;;;;;4817643;29;20037;-81
2023/07/01 08:53:46;;;;;;;3.25;0.98;;;;;;;;;;4837431;29;20121;-81
2023/07/01 08:56:13;;;;;;;3.97;0.87;;;;;;;;;;4817955;29;20552;-80
2023/07/01 08:58:40;;;;;;;4.00;0.97;;;;;;;;;;4839356;29;20051;-81
2023/07/01 09:01:13;;;;;;;3.92;0.98;;;;;;;;;;4841909;29;20290;-82
2023/07/01 09:03:39;;;;;;;4.55;1.00;;;;;;;;;;4835574;29;20038;-83
2023/07/01 09:06:05;;;;;;;3.90;0.90;;;;;;;;;;4837941;29;20064;-82
2023/07/01 09:08:40;;;;;;;3.53;1.02;;;;;;;;;;4854196;29;20045;-81
2023/07/01 09:11:10;;;;;;;6.03;1.13;;;;;;;;;;4835183;29;20473;-80
2023/07/01 09:13:38;;;;;;;3.70;1.00;;;;;;;;;;4892826;29;20404;-83
2023/07/01 09:16:04;;;;;;;5.38;1.10;;;;;;;;;;4881016;29;20064;-83
2023/07/01 09:18:29;;;;;;;4.70;1.38;;;;;;;;;;4890865;29;20321;-83
2023/07/01 09:20:56;;;;;;;3.13;0.95;;;;;;;;;;4906848;29;20434;-83
2023/07/01 09:23:34;;;;;;;3.00;0.77;;;;;;;;;;4878118;29;20731;-84
2023/07/01 09:26:10;;;;;;;2.65;0.82;;;;;;;;;;4906848;29;20469;-82
2023/07/01 09:28:56;;;;;;;4.65;1.38;;;;;;;;;;4897180;29;20674;-82
2023/07/01 09:31:25;;;;;;;3.92;1.10;;;;;;;;;;4869902;29;20159;-86
2023/07/01 09:34:28;;;;;;;2.63;1.00;;;;;;;;;;4849243;29;20036;-86
2023/07/01 09:37:36;;;;;;;;;;;;;;;;;;;;;
2023/07/01 09:40:26;;;;;;;4.25;0.93;;;;;;;;;;4815525;29;20208;-86
2023/07/01 09:43:40;;;;;;;4.25;0.90;;;;;;;;;;4830395;29;20480;-85
2023/07/01 09:50:03;;;;;;;2.70;1.08;;;;;;;;;;4798573;29;20066;-85
2023/07/01 09:53:03;;;;;;;3.78;1.10;;;;;;;;;;4818877;29;20051;-83
2023/07/01 09:55:30;;;;;;;3.42;1.10;;;;;;;;;;4831814;29;20042;-82
2023/07/01 09:58:06;;;;;;;3.25;1.17;;;;;;;;;;4816773;29;20053;-82
2023/07/01 10:00:32;;;;;;;5.07;1.20;;;;;;;;;;4830931;29;20486;-82
2023/07/01 10:02:57;;;;;;;3.88;1.13;;;;;;;;;;4840070;29;20042;-82
2023/07/01 10:05:23;;;;;;;3.58;1.05;;;;;;;;;;4837499;29;20045;-81
2023/07/01 10:07:48;;;;;;;3.33;1.17;;;;;;;;;;4851929;29;20466;-82
2023/07/01 10:10:20;;;;;;;3.20;1.15;;;;;;;;;;4850072;29;20102;-80
2023/07/01 10:12:47;;;;;;;2.72;1.17;;;;;;;;;;4808358;29;20037;-79
2023/07/01 10:15:16;;;;;;;5.32;1.20;;;;;;;;;;4862987;29;20041;-82
2023/07/01 10:17:46;;;;;;;3.15;1.02;;;;;;;;;;4866649;29;20456;-81
2023/07/01 10:20:24;;;;;;;4.68;1.00;;;;;;;;;;4857503;29;20584;-82
2023/07/01 10:22:57;;;;;;;3.65;0.95;;;;;;;;;;4852657;29;20548;-82
2023/07/01 10:25:36;;;;;;;4.47;1.10;;;;;;;;;;4819478;29;20127;-83
2023/07/01 10:28:12;;;;;;;3.33;1.13;;;;;;;;;;4876834;29;20049;-80
2023/07/01 10:30:43;;;;;;;3.35;1.13;;;;;;;;;;4881076;29;20050;-82
2023/07/01 10:33:27;;;;;;;3.88;1.30;;;;;;;;;;4893713;29;20033;-82
2023/07/01 10:36:08;;;;;;;3.15;1.10;;;;;;;;;;4891424;29;20036;-83
2023/07/01 10:38:35;;;;;;;7.18;1.25;;;;;;;;;;4883803;29;20870;-82
2023/07/01 10:41:04;;;;;;;3.80;1.10;;;;;;;;;;4890222;29;25300;-81
2023/07/01 10:43:34;;;;;;;7.88;1.00;;;;;;;;;;4875331;29;20045;-82
2023/07/01 10:46:12;;;;;;;4.00;0.98;;;;;;;;;;4906045;29;20493;-83
2023/07/01 10:48:41;;;;;;;3.65;1.40;;;;;;;;;;4877218;29;20127;-84
2023/07/01 10:51:13;;;;;;;4.18;1.00;;;;;;;;;;4882959;29;20039;-84
2023/07/01 10:53:59;;;;;;;4.15;1.13;;;;;;;;;;4897919;29;20492;-85
2023/07/01 10:56:27;;;;;;;3.10;1.15;;;;;;;;;;4872653;29;20132;-84
2023/07/01 10:59:29;;;;;;;2.53;1.08;;;;;;;;;;4906030;29;20044;-84
2023/07/01 11:02:01;;;;;;;5.10;1.30;;;;;;;;;;4886744;29;20485;-86
2023/07/01 11:04:54;;;;;;;3.78;1.23;;;;;;;;;;4890166;29;20135;-84
2023/07/01 11:07:41;;;;;;;4.43;1.35;;;;;;;;;;4892401;29;20044;-82
2023/07/01 11:10:11;;;;;;;5.15;1.20;;;;;;;;;;4906684;29;20040;-85
2023/07/01 11:12:46;;;;;;;4.20;1.38;;;;;;;;;;4898938;29;20747;-86
2023/07/01 11:15:24;;;;;;;4.82;1.10;;;;;;;;;;4870560;29;20033;-87
2023/07/01 11:17:57;;;;;;;2.50;1.10;;;;;;;;;;4872703;29;20155;-87
2023/07/01 11:20:23;;;;;;;3.83;1.38;;;;;;;;;;4907344;29;20126;-84
2023/07/01 11:23:19;;;;;;;4.78;1.42;;;;;;;;;;4885786;29;20528;-85
2023/07/01 11:26:25;;;;;;;3.67;1.20;;;;;;;;;;4874446;29;20425;-87
2023/07/01 11:29:17;;;;;;;4.07;0.90;;;;;;;;;;4851785;29;20068;-85
2023/07/01 11:36:18;;;;;;;5.82;1.20;;;;;;;;;;4790082;29;20041;-85
2023/07/01 11:39:35;;;;;;;5.07;1.33;;;;;;;;;;4682941;30;20062;-84
2023/07/01 11:42:03;;;;;;;3.78;1.33;;;;;;;;;;4700704;29;20946;-86
2023/07/01 11:44:33;;;;;;;5.82;1.20;;;;;;;;;;4749140;29;20107;-85
2023/07/01 11:47:02;;;;;;;4.88;1.23;;;;;;;;;;4778929;29;20445;-85
2023/07/01 11:49:29;;;;;;;5.85;1.30;;;;;;;;;;4807658;29;20042;-85
2023/07/01 11:52:01;;;;;;;2.78;1.25;;;;;;;;;;4754101;29;20050;-84
2023/07/01 11:54:39;;;;;;;3.33;1.13;;;;;;;;;;4790565;29;20039;-85
2023/07/01 11:57:38;;;;;;;3.20;1.10;;;;;;;;;;4774684;29;20702;-86
2023/07/01 12:00:05;;;;;;;2.97;1.30;;;;;;;;;;4804223;29;20049;-84
2023/07/01 12:02:34;;;;;;;3.28;1.48;;;;;;;;;;4788850;29;20054;-86
2023/07/01 12:05:03;;;;;;;5.18;1.15;;;;;;;;;;4788121;29;20042;-86
2023/07/01 12:07:31;;;;;;;4.72;1.45;;;;;;;;;;4780340;29;20054;-85
2023/07/01 12:10:16;;;;;;;3.08;1.30;;;;;;;;;;4802372;29;20125;-86
2023/07/01 12:12:42;;;;;;;5.40;1.50;;;;;;;;;;4794567;29;20042;-84
2023/07/01 12:15:15;;;;;;;7.63;1.58;;;;;;;;;;4846543;29;20108;-85
2023/07/01 12:17:41;;;;;;;5.07;1.48;;;;;;;;;;4852536;29;20048;-84
2023/07/01 12:20:08;;;;;;;4.22;1.50;;;;;;;;;;4880669;29;20040;-85
2023/07/01 12:22:43;;;;;;;7.25;1.67;;;;;;;;;;4869384;29;20069;-85
2023/07/01 12:25:08;;;;;;;3.90;1.67;;;;;;;;;;4871633;29;20044;-85
2023/07/01 12:27:34;;;;;;;4.15;1.38;;;;;;;;;;4874482;29;20087;-85
2023/07/01 12:30:00;;;;;;;5.30;1.45;;;;;;;;;;4873442;29;20056;-85
2023/07/01 12:32:26;;;;;;;4.30;1.77;;;;;;;;;;4860200;29;20535;-85
2023/07/01 12:35:14;;;;;;;4.43;1.45;;;;;;;;;;4883583;29;20052;-88
2023/07/01 12:37:42;;;;;;;6.30;1.75;;;;;;;;;;4864479;29;20417;-88
2023/07/01 12:41:02;;;;;;;4.25;1.30;;;;;;;;;;4850603;29;20459;-88
2023/07/01 12:43:59;;;;;;;5.75;1.23;;;;;;;;;;4805654;29;20036;-88
2023/07/01 12:50:21;;;;;;;4.55;1.55;;;;;;;;;;4803297;29;20050;-89
2023/07/01 12:53:29;;;;;;;4.03;1.50;;;;;;;;;;4831327;29;20518;-88
2023/07/01 12:56:56;;;;;;;;;;;;;;;;;;;;;
2023/07/01 12:59:54;;;;;;;3.90;1.42;;;;;;;;;;4842344;29;20733;-91
2023/07/01 13:02:38;;;;;;;5.68;1.60;;;;;;;;;;4795925;29;20050;-93
2023/07/01 13:05:20;;;;;;;4.72;1.60;;;;;;;;;;4781851;29;20051;-88
2023/07/01 13:41:24;;;;;;;4.63;1.60;;;;;;;;;;4945869;28;20508;-86
2023/07/01 13:47:13;;;;;;;3.85;1.70;;;;;;;;;;4966814;28;20046;-89
2023/07/01 13:50:38;;;;;;;3.20;1.42;;;;;;;;;;4968226;28;20066;-89
2023/07/01 13:53:25;;;;;;;4.95;1.85;;;;;;;;;;4931578;28;20183;-90
2023/07/01 13:55:51;;;;;;;5.77;1.83;;;;;;;;;;4939617;28;20042;-89
2023/07/01 13:58:19;;;;;;;2.63;1.38;;;;;;;;;;4969109;28;20420;-88
2023/07/01 14:00:49;;;;;;;3.80;1.85;;;;;;;;;;4946189;28;20109;-89
2023/07/01 14:03:26;;;;;;;3.95;1.52;;;;;;;;;;4951127;28;20604;-91
2023/07/01 14:43:06;;;;;;;5.60;1.50;;;;;;;;;;4928430;29;20500;-83
2023/07/01 14:45:31;;;;;;;5.22;1.80;;;;;;;;;;4925351;28;20046;-80
2023/07/01 14:47:57;;;;;;;3.45;1.83;;;;;;;;;;4921656;29;20027;-80
2023/07/01 14:50:25;;;;;;;5.10;1.70;;;;;;;;;;4923852;29;20032;-79
2023/07/01 14:52:51;;;;;;;3.65;1.63;;;;;;;;;;4926973;29;20047;-79
2023/07/01 14:55:16;;;;;;;4.78;1.65;;;;;;;;;;4894386;28;20043;-84
2023/07/01 14:57:42;;;;;;;4.65;1.60;;;;;;;;;;4902739;29;20040;-83
2023/07/01 15:00:09;;;;;;;8.13;1.58;;;;;;;;;;4911200;29;20058;-83
2023/07/01 15:02:39;;;;;;;5.07;1.95;;;;;;;;;;4891021;29;20137;-84
2023/07/01 15:05:05;;;;;;;4.40;1.40;;;;;;;;;;4893713;29;20042;-82
2023/07/01 15:07:39;;;;;;;5.55;1.70;;;;;;;;;;4888291;29;20114;-90
2023/07/01 15:10:16;;;;;;;5.78;1.60;;;;;;;;;;4928052;29;20468;-83
2023/07/01 15:12:41;;;;;;;3.75;1.30;;;;;;;;;;4907083;29;20036;-88
2023/07/01 15:15:07;;;;;;;3.47;1.50;;;;;;;;;;4918406;29;20062;-83
2023/07/01 15:17:36;;;;;;;7.13;1.42;;;;;;;;;;4867382;29;20052;-86
2023/07/01 15:20:01;;;;;;;3.28;1.30;;;;;;;;;;4905513;29;20161;-80
2023/07/01 15:22:27;;;;;;;4.28;1.55;;;;;;;;;;4915605;29;20060;-84
2023/07/01 15:25:30;;;;;;;4.40;1.40;;;;;;;;;;4901449;29;20040;-87
2023/07/01 15:31:16;;;;;;;3.53;1.48;;;;;;;;;;4838735;29;20060;-85
2023/07/01 15:33:45;;;;;;;3.10;1.38;;;;;;;;;;4922119;29;20074;-85
2023/07/01 15:36:11;;;;;;;3.58;1.25;;;;;;;;;;4926733;29;20659;-85
2023/07/01 15:38:36;;;;;;;2.70;1.30;;;;;;;;;;4908871;29;20043;-85
2023/07/01 15:41:01;;;;;;;4.45;1.30;;;;;;;;;;4899264;29;20043;-85
2023/07/01 15:43:27;;;;;;;4.63;1.40;;;;;;;;;;4911741;29;20028;-87
2023/07/01 15:45:53;;;;;;;4.60;1.40;;;;;;;;;;4894003;28;20036;-86
2023/07/01 15:48:20;;;;;;;4.22;1.70;;;;;;;;;;4906994;29;20039;-86
2023/07/01 15:50:45;;;;;;;2.80;1.30;;;;;;;;;;4930366;29;20090;-85
2023/07/01 15:53:11;;;;;;;4.28;1.60;;;;;;;;;;4904200;29;20035;-85
2023/07/01 15:55:36;;;;;;;4.60;1.67;;;;;;;;;;4926915;29;20054;-86
2023/07/01 15:58:02;;;;;;;6.00;1.60;;;;;;;;;;4927135;29;20086;-86
2023/07/01 16:00:48;;;;;;;4.15;1.45;;;;;;;;;;4917913;29;20044;-88
2023/07/01 16:03:17;;;;;;;5.45;1.73;;;;;;;;;;4901396;29;20067;-87
2023/07/01 16:05:45;;;;;;;3.00;1.40;;;;;;;;;;4898371;29;20036;-86
2023/07/01 16:08:16;;;;;;;6.03;1.90;;;;;;;;;;4891949;29;20082;-87
2023/07/01 16:10:44;;;;;;;4.18;2.05;;;;;;;;;;4857574;29;20803;-86
2023/07/01 16:13:22;;;;;;;4.03;1.70;;;;;;;;;;4891675;29;20039;-86
2023/07/01 16:15:57;;;;;;;6.53;1.90;;;;;;;;;;4864177;29;20036;-85
2023/07/01 16:18:40;;;;;;;3.70;1.65;;;;;;;;;;4891791;29;20052;-86
2023/07/01 16:21:22;;;;;;;4.35;1.75;;;;;;;;;;4900607;29;20126;-86
2023/07/01 16:23:54;;;;;;;4.07;1.73;;;;;;;;;;4897349;29;20891;-88
2023/07/01 16:26:42;;;;;;;4.20;1.85;;;;;;;;;;4882855;29;20622;-86
2023/07/01 16:29:08;;;;;;;5.15;1.80;;;;;;;;;;4883607;29;20404;-87
2023/07/01 16:31:37;;;;;;;5.40;2.00;;;;;;;;;;4883626;29;20036;-87